Time;durP1;ratioP1;P1;durP2;ratioP2;P2;SDS_P1;SDS_P2;PMS_P1;PMS_P2;Temp;Humidity;BMP_temperature;BMP_pressure;BME280_temperature;BME280_humidity;BME280_pressure;Samples;Min_cycle;Max_cycle;Signal;HPM_P1;HPM_P2
2021/06/25 00:00:41;;;;;;;3.40;3.10;;;;;;;16.66;100.00;99212.00;10218499;29;20184;-83
2021/06/25 00:06:00;;;;;;;4.50;3.60;;;;;;;16.66;100.00;99203.66;10217882;29;20670;-83
2021/06/25 00:11:19;;;;;;;3.40;3.10;;;;;;;16.65;100.00;99194.56;10226979;29;20182;-82
2021/06/25 00:16:38;;;;;;;3.30;2.77;;;;;;;16.71;100.00;99195.56;10256304;29;20179;-82
2021/06/25 00:21:57;;;;;;;4.10;3.20;;;;;;;16.62;100.00;99194.66;10258440;29;20175;-82
2021/06/25 00:27:16;;;;;;;6.97;4.07;;;;;;;16.53;100.00;99184.16;10256874;28;20575;-83
2021/06/25 00:32:35;;;;;;;4.37;3.83;;;;;;;16.50;100.00;99179.47;10255129;29;20230;-83
2021/06/25 00:37:54;;;;;;;6.23;5.00;;;;;;;16.43;100.00;99176.88;10256626;29;20190;-82
2021/06/25 00:43:14;;;;;;;5.50;4.20;;;;;;;16.40;100.00;99185.28;10233517;29;20270;-83
2021/06/25 00:48:33;;;;;;;7.87;4.27;;;;;;;16.40;100.00;99180.53;10215011;29;20268;-83
2021/06/25 00:53:52;;;;;;;8.83;4.40;;;;;;;16.40;100.00;99179.72;10217694;29;20180;-82
2021/06/25 00:59:11;;;;;;;5.73;4.20;;;;;;;16.60;100.00;99183.19;10216512;29;20187;-82
2021/06/25 01:04:30;;;;;;;7.20;5.00;;;;;;;16.58;100.00;99185.63;10215739;29;20203;-82
2021/06/25 01:09:50;;;;;;;3.77;3.33;;;;;;;16.51;100.00;99177.47;10217361;29;20610;-82
2021/06/25 01:15:10;;;;;;;4.73;4.17;;;;;;;16.44;100.00;99178.44;10215747;29;20183;-82
2021/06/25 01:20:31;;;;;;;5.30;4.03;;;;;;;16.54;100.00;99171.06;10215388;29;20179;-82
2021/06/25 01:25:50;;;;;;;4.50;4.10;;;;;;;16.55;100.00;99169.84;10215548;29;20203;-82
2021/06/25 01:31:09;;;;;;;4.80;3.77;;;;;;;16.48;100.00;99183.88;10213937;29;20749;-82
2021/06/25 01:36:30;;;;;;;4.00;3.60;;;;;;;16.30;100.00;99164.91;10215861;29;20196;-82
2021/06/25 01:41:48;;;;;;;4.33;3.93;;;;;;;16.31;100.00;99176.81;10229413;29;20645;-82
2021/06/25 01:47:07;;;;;;;4.73;4.30;;;;;;;16.35;100.00;99171.94;10214476;29;20223;-82
2021/06/25 01:52:26;;;;;;;5.23;3.17;;;;;;;16.37;100.00;99169.50;10215379;29;20180;-82
2021/06/25 01:57:46;;;;;;;4.87;3.60;;;;;;;16.43;100.00;99168.56;10216087;29;20187;-82
2021/06/25 02:03:05;;;;;;;6.20;4.27;;;;;;;16.44;100.00;99166.56;10212605;29;20211;-82
2021/06/25 02:08:24;;;;;;;5.20;4.70;;;;;;;16.45;100.00;99162.56;10213136;29;20570;-82
2021/06/25 02:13:43;;;;;;;5.00;3.73;;;;;;;16.49;100.00;99166.00;10242987;29;20174;-83
2021/06/25 02:19:02;;;;;;;6.63;4.43;;;;;;;16.64;100.00;99165.22;10252945;29;20178;-83
2021/06/25 02:24:21;;;;;;;7.60;4.67;;;;;;;16.49;100.00;99163.22;10252812;29;20701;-83
2021/06/25 02:29:41;;;;;;;6.83;4.33;;;;;;;16.44;100.00;99169.31;10253617;29;20222;-83
2021/06/25 02:35:00;;;;;;;8.50;5.50;;;;;;;16.42;100.00;99168.97;10252570;29;20175;-83
2021/06/25 02:40:18;;;;;;;8.60;5.07;;;;;;;16.42;100.00;99163.41;10250802;29;20175;-84
2021/06/25 02:45:37;;;;;;;6.00;4.80;;;;;;;16.25;100.00;99167.41;10212625;29;20223;-83
2021/06/25 02:50:56;;;;;;;7.90;5.40;;;;;;;16.28;100.00;99167.31;10213328;29;20187;-83
2021/06/25 02:56:15;;;;;;;6.27;5.43;;;;;;;16.37;100.00;99161.19;10213513;29;20270;-83
2021/06/25 03:01:34;;;;;;;5.83;5.20;;;;;;;16.25;100.00;99164.63;10211203;29;20215;-83
2021/06/25 03:06:53;;;;;;;6.97;5.70;;;;;;;16.18;100.00;99162.03;10212956;29;20211;-83
2021/06/25 03:12:13;;;;;;;7.63;5.43;;;;;;;16.22;100.00;99168.28;10228373;29;20194;-84
2021/06/25 03:17:32;;;;;;;8.00;4.83;;;;;;;16.22;100.00;99163.50;10250756;29;20213;-83
2021/06/25 03:22:51;;;;;;;8.03;5.40;;;;;;;16.19;100.00;99163.59;10252705;29;20182;-83
2021/06/25 03:28:10;;;;;;;6.47;4.60;;;;;;;16.19;100.00;99169.13;10251182;29;20214;-84
2021/06/25 03:33:29;;;;;;;8.27;5.83;;;;;;;16.12;100.00;99166.53;10250624;29;20288;-84
2021/06/25 03:38:48;;;;;;;11.93;6.40;;;;;;;16.15;100.00;99174.78;10251233;29;20563;-84
2021/06/25 03:44:10;;;;;;;6.67;4.93;;;;;;;16.01;100.00;99166.00;10220100;29;20207;-84
2021/06/25 03:49:29;;;;;;;8.00;5.73;;;;;;;15.95;100.00;99158.66;10212075;29;20240;-84
2021/06/25 03:54:48;;;;;;;7.10;5.60;;;;;;;16.06;100.00;99166.28;10213910;29;20534;-83
2021/06/25 04:00:11;;;;;;;5.30;4.00;;;;;;;16.00;100.00;99172.78;10214041;29;20176;-84
2021/06/25 04:05:30;;;;;;;5.33;4.83;;;;;;;16.10;100.00;99163.41;10221621;29;20207;-85
2021/06/25 04:10:49;;;;;;;6.43;5.37;;;;;;;16.00;100.00;99170.00;10221914;29;20638;-84
2021/06/25 04:16:08;;;;;;;7.20;4.57;;;;;;;16.12;100.00;99163.78;10219931;29;20191;-84
2021/06/25 04:21:27;;;;;;;4.90;4.50;;;;;;;16.01;100.00;99169.59;10222171;29;20211;-84
2021/06/25 04:26:46;;;;;;;5.43;3.83;;;;;;;16.02;100.00;99164.81;10222126;29;20289;-83
2021/06/25 04:32:05;;;;;;;10.40;4.67;;;;;;;16.06;100.00;99165.50;10233415;29;20238;-83
2021/06/25 04:37:24;;;;;;;6.50;4.67;;;;;;;15.97;100.00;99168.88;10257774;29;20203;-83
2021/06/25 04:42:45;;;;;;;6.33;5.37;;;;;;;15.96;100.00;99172.84;10256874;29;20676;-83
2021/06/25 04:48:09;;;;;;;9.53;4.60;;;;;;;16.05;100.00;99181.38;10254822;29;20214;-84
2021/06/25 04:53:28;;;;;;;5.80;4.50;;;;;;;16.21;100.00;99183.38;10256348;29;20206;-83
2021/06/25 04:58:47;;;;;;;7.77;4.40;;;;;;;16.30;100.00;99181.56;10256845;29;20182;-83
2021/06/25 05:04:07;;;;;;;5.40;3.90;;;;;;;16.31;100.00;99174.03;10218660;29;20270;-83
2021/06/25 05:09:25;;;;;;;5.33;4.83;;;;;;;16.47;100.00;99174.03;10227394;29;20188;-83
2021/06/25 05:14:44;;;;;;;6.13;4.83;;;;;;;16.48;100.00;99170.00;10215597;29;20194;-82
2021/06/25 05:20:04;;;;;;;7.07;5.20;;;;;;;16.33;100.00;99177.13;10214252;29;20180;-82
2021/06/25 05:25:23;;;;;;;5.23;4.40;;;;;;;16.47;100.00;99176.78;10216163;29;20568;-83
2021/06/25 05:30:43;;;;;;;5.90;4.87;;;;;;;16.53;100.00;99178.59;10214983;29;20227;-82
2021/06/25 05:36:02;;;;;;;12.20;5.50;;;;;;;16.52;100.00;99181.81;10215819;29;20286;-82
2021/06/25 05:41:21;;;;;;;14.43;6.70;;;;;;;16.58;100.00;99191.97;10229057;29;20601;-82
2021/06/25 05:46:40;;;;;;;10.57;5.47;;;;;;;16.49;100.00;99189.03;10239659;29;20207;-81
2021/06/25 05:52:00;;;;;;;8.40;5.90;;;;;;;16.25;100.00;99200.72;10235897;29;20538;-82
2021/06/25 05:57:19;;;;;;;7.17;5.80;;;;;;;16.23;100.00;99200.38;10215238;29;20266;-82
2021/06/25 06:02:38;;;;;;;10.80;7.57;;;;;;;16.33;100.00;99202.94;10212686;29;20254;-82
2021/06/25 06:07:57;;;;;;;11.47;5.47;;;;;;;16.44;100.00;99219.31;10213512;29;20694;-81
2021/06/25 06:13:16;;;;;;;10.10;7.00;;;;;;;16.60;100.00;99217.28;10213614;29;20172;-82
2021/06/25 06:18:45;;;;;;;9.30;6.40;;;;;;;16.67;100.00;99230.22;10212464;29;20191;-82
2021/06/25 06:35:20;;;;;;;9.93;6.00;;;;;;;17.04;100.00;99222.06;10251928;29;20652;-82
2021/06/25 06:40:39;;;;;;;15.20;5.53;;;;;;;17.26;100.00;99225.81;10253791;29;20182;-83
2021/06/25 06:45:58;;;;;;;7.67;5.37;;;;;;;17.52;100.00;99222.72;10251035;29;20230;-82
2021/06/25 06:51:19;;;;;;;10.80;5.20;;;;;;;17.66;100.00;99223.06;10243740;29;20214;-83
2021/06/25 06:56:37;;;;;;;8.83;4.93;;;;;;;17.77;100.00;99225.50;10239089;29;20194;-82
2021/06/25 07:01:56;;;;;;;8.73;5.70;;;;;;;17.76;100.00;99223.97;10250952;29;20547;-82
2021/06/25 07:07:15;;;;;;;17.63;6.10;;;;;;;17.92;100.00;99235.00;10252639;29;20211;-82
2021/06/25 07:12:36;;;;;;;8.73;5.90;;;;;;;18.14;100.00;99244.25;10252084;29;20179;-82
2021/06/25 07:17:55;;;;;;;10.27;7.33;;;;;;;18.05;100.00;99252.50;10250641;29;20191;-82
2021/06/25 07:23:15;;;;;;;8.83;7.93;;;;;;;18.09;100.00;99253.19;10252811;29;20658;-83
2021/06/25 07:28:35;;;;;;;14.00;7.07;;;;;;;18.27;100.00;99256.19;10212517;29;20234;-82
2021/06/25 07:33:54;;;;;;;7.97;5.63;;;;;;;18.10;100.00;99257.50;10212033;29;20254;-82
2021/06/25 07:39:13;;;;;;;7.10;4.83;;;;;;;18.18;100.00;99258.84;10220293;29;20254;-82
2021/06/25 07:44:32;;;;;;;8.00;5.07;;;;;;;18.38;100.00;99257.41;10220090;29;20289;-83
2021/06/25 07:49:52;;;;;;;9.30;6.07;;;;;;;19.06;100.00;99247.13;10218672;29;20187;-83
2021/06/25 07:55:13;;;;;;;8.33;5.30;;;;;;;19.56;100.00;99242.13;10234298;29;20183;-83
2021/06/25 08:00:32;;;;;;;6.03;4.73;;;;;;;20.19;100.00;99248.06;10259220;29;20547;-83
2021/06/25 08:05:53;;;;;;;6.93;5.37;;;;;;;20.56;100.00;99244.94;10257624;29;20202;-83
2021/06/25 08:11:13;;;;;;;8.60;5.20;;;;;;;21.42;100.00;99244.44;10259128;29;20175;-83
2021/06/25 08:16:32;;;;;;;5.10;4.50;;;;;;;22.01;100.00;99250.88;10257543;29;20183;-84
2021/06/25 08:21:51;;;;;;;7.57;6.00;;;;;;;22.56;100.00;99246.63;10258680;29;20183;-84
2021/06/25 08:27:10;;;;;;;5.13;4.63;;;;;;;22.77;100.00;99249.16;10223872;29;20211;-84
2021/06/25 08:32:29;;;;;;;5.50;5.00;;;;;;;22.02;100.00;99255.25;10215745;29;20215;-84
2021/06/25 08:37:49;;;;;;;5.90;4.37;;;;;;;21.41;100.00;99252.06;10217207;29;20254;-83
2021/06/25 08:43:08;;;;;;;4.97;4.47;;;;;;;20.89;100.00;99251.56;10217144;29;20191;-84
2021/06/25 08:48:28;;;;;;;7.90;4.47;;;;;;;19.80;100.00;99259.97;10215626;29;20245;-84
2021/06/25 08:53:49;;;;;;;9.30;5.53;;;;;;;19.19;100.00;99261.84;10222511;29;20182;-84
2021/06/25 08:59:08;;;;;;;6.40;5.67;;;;;;;18.90;100.00;99257.66;10258222;29;20179;-83
2021/06/25 09:04:38;;;;;;;5.60;4.70;;;;;;;19.49;100.00;99258.34;10256393;29;20556;-83
2021/06/25 09:09:58;;;;;;;9.60;5.20;;;;;;;19.44;100.00;99262.50;10257024;29;20183;-83
2021/06/25 09:15:18;;;;;;;6.00;5.40;;;;;;;19.61;100.00;99265.88;10255818;29;20221;-83
2021/06/25 09:20:48;;;;;;;5.97;5.43;;;;;;;19.73;100.00;99271.41;10254223;29;20170;-83
2021/06/25 09:26:10;;;;;;;7.43;5.53;;;;;;;19.79;100.00;99266.78;10253524;29;20238;-83
2021/06/25 09:31:30;;;;;;;6.17;4.40;;;;;;;19.73;100.00;99267.81;10253081;29;20678;-83
2021/06/25 09:36:49;;;;;;;5.07;4.67;;;;;;;19.99;100.00;99261.63;10254737;29;20281;-83
2021/06/25 09:42:19;;;;;;;5.20;4.47;;;;;;;20.36;100.00;99255.75;10254616;29;20590;-83
2021/06/25 09:47:41;;;;;;;8.27;5.20;;;;;;;21.32;100.00;99259.69;10254033;29;20210;-82
2021/06/25 09:53:04;;;;;;;5.27;4.77;;;;;;;21.20;100.00;99255.00;10252513;29;20175;-83
2021/06/25 10:03:51;;;;;;;8.20;5.00;;;;;;;21.84;100.00;99248.91;10213495;29;20179;-83
2021/06/25 10:09:10;;;;;;;7.37;4.53;;;;;;;22.03;100.00;99248.41;10214951;29;20192;-82
2021/06/25 10:14:32;;;;;;;5.33;4.83;;;;;;;23.43;90.13;99244.94;10213853;29;20630;-82
2021/06/25 10:19:57;;;;;;;5.60;4.83;;;;;;;24.41;85.32;99241.06;10213240;29;20183;-82
2021/06/25 10:25:17;;;;;;;5.10;4.70;;;;;;;24.63;65.72;99238.63;10235657;29;20297;-83
2021/06/25 10:30:37;;;;;;;4.67;4.27;;;;;;;25.54;62.66;99239.53;10248216;29;20582;-82
2021/06/25 10:35:56;;;;;;;6.93;4.83;;;;;;;24.90;63.67;99229.78;10248511;29;20202;-82
2021/06/25 10:41:18;;;;;;;6.10;5.20;;;;;;;24.23;65.24;99238.50;10215229;29;20269;-81
2021/06/25 10:46:38;;;;;;;5.67;5.10;;;;;;;24.60;64.66;99233.97;10222812;29;20292;-82
2021/06/25 10:52:08;;;;;;;8.53;5.30;;;;;;;25.52;57.01;99225.19;10240607;29;20183;-81
2021/06/25 10:57:32;;;;;;;4.50;4.10;;;;;;;25.58;61.60;99228.84;10221052;29;20195;-82
2021/06/25 11:02:51;;;;;;;6.47;5.23;;;;;;;24.41;66.38;99227.00;10226932;29;20574;-82
2021/06/25 11:08:16;;;;;;;7.63;5.17;;;;;;;24.91;65.39;99219.28;10242479;28;20210;-82
2021/06/25 11:13:37;;;;;;;7.50;4.90;;;;;;;25.66;58.09;99224.31;10224540;29;20183;-83
2021/06/25 11:18:59;;;;;;;4.60;4.17;;;;;;;25.42;64.93;99223.00;10219958;29;20191;-83
2021/06/25 11:24:48;;;;;;;5.40;3.93;;;;;;;26.10;56.39;99214.22;10219617;29;20203;-82
2021/06/25 11:30:07;;;;;;;5.40;4.90;;;;;;;28.12;50.45;99208.69;10228023;29;20215;-83
2021/06/25 11:35:36;;;;;;;5.60;5.10;;;;;;;28.92;45.25;99205.50;10219099;29;20207;-83
2021/06/25 11:40:55;;;;;;;3.87;3.57;;;;;;;29.38;46.46;99202.78;10220387;29;20203;-83
2021/06/25 11:46:18;;;;;;;4.20;3.90;;;;;;;28.28;48.98;99219.28;10245419;29;21007;-83
2021/06/25 11:51:42;;;;;;;5.47;4.97;;;;;;;27.57;52.22;99211.44;10218719;29;20545;-85
2021/06/25 11:57:01;;;;;;;20.87;4.70;;;;;;;26.97;52.76;99216.88;10218628;29;20199;-84
2021/06/25 12:02:20;;;;;;;7.00;4.40;;;;;;;25.42;54.61;99214.56;10227079;29;20191;-84
2021/06/25 12:07:39;;;;;;;5.10;4.70;;;;;;;24.59;57.67;99211.94;10226725;29;20226;-83
2021/06/25 12:13:00;;;;;;;5.97;4.60;;;;;;;24.13;60.81;99202.53;10219332;29;20635;-84
2021/06/25 12:18:24;;;;;;;4.23;3.83;;;;;;;23.09;67.04;99208.28;10216793;29;20266;-84
2021/06/25 12:23:43;;;;;;;5.30;4.80;;;;;;;23.49;68.39;99198.88;10217692;29;20195;-83
2021/06/25 12:29:04;;;;;;;6.47;5.77;;;;;;;23.88;67.65;99194.72;10216579;29;20218;-83
2021/06/25 12:34:23;;;;;;;5.20;4.70;;;;;;;23.67;66.71;99197.91;10222362;29;20206;-84
2021/06/25 12:39:44;;;;;;;4.80;4.40;;;;;;;24.03;65.79;99201.09;10241551;29;20269;-83
2021/06/25 12:45:04;;;;;;;5.20;4.70;;;;;;;23.54;65.71;99203.81;10231997;29;20211;-83
2021/06/25 12:50:27;;;;;;;5.53;4.63;;;;;;;23.18;68.15;99205.41;10235733;29;20265;-83
2021/06/25 12:55:46;;;;;;;5.30;4.73;;;;;;;23.07;65.92;99210.78;10241350;29;20219;-84
2021/06/25 13:01:06;;;;;;;5.43;4.73;;;;;;;22.16;76.26;99209.72;10215149;29;20195;-83
2021/06/25 13:06:28;;;;;;;9.00;4.30;;;;;;;22.19;74.67;99217.19;10219977;29;20661;-83
2021/06/25 13:11:50;;;;;;;4.97;4.40;;;;;;;21.70;77.92;99222.34;10256377;29;20195;-84
2021/06/25 13:17:11;;;;;;;5.60;5.10;;;;;;;21.19;82.80;99228.28;10254942;29;20190;-83
2021/06/25 13:22:38;;;;;;;4.70;4.30;;;;;;;21.42;83.40;99227.63;10255886;29;20646;-82
2021/06/25 13:27:58;;;;;;;8.00;5.10;;;;;;;21.52;85.84;99229.19;10221209;29;20584;-82
2021/06/25 13:33:17;;;;;;;5.10;4.50;;;;;;;20.88;94.70;99234.00;10237368;29;20223;-82
2021/06/25 13:38:36;;;;;;;7.67;5.20;;;;;;;20.61;100.00;99233.16;10234901;29;20639;-81
2021/06/25 13:43:56;;;;;;;5.37;4.83;;;;;;;20.73;100.00;99226.66;10214910;29;20195;-82
2021/06/25 13:49:14;;;;;;;4.10;3.63;;;;;;;21.24;100.00;99214.44;10227665;29;20625;-82
2021/06/25 13:54:33;;;;;;;3.57;3.27;;;;;;;22.05;88.16;99220.66;10224899;29;20183;-83
2021/06/25 13:59:52;;;;;;;2.77;2.53;;;;;;;23.72;75.32;99220.47;10225014;29;20218;-83
2021/06/25 14:05:12;;;;;;;2.60;2.40;;;;;;;25.81;61.40;99219.34;10245627;29;20206;-82
2021/06/25 14:10:33;;;;;;;3.90;3.60;;;;;;;27.25;52.94;99202.88;10213952;29;20179;-81
2021/06/25 14:15:53;;;;;;;3.73;3.43;;;;;;;28.01;51.29;99203.03;10213425;29;20214;-81
2021/06/25 14:21:16;;;;;;;4.77;4.37;;;;;;;28.31;52.37;99196.38;10214687;29;20266;-82
2021/06/25 14:26:36;;;;;;;7.77;3.60;;;;;;;27.83;50.94;99203.53;10214120;29;20206;-83
2021/06/25 14:31:55;;;;;;;4.40;4.00;;;;;;;27.53;51.75;99198.84;10217311;29;20226;-82
2021/06/25 14:37:14;;;;;;;3.90;3.60;;;;;;;26.34;55.78;99213.88;10252805;29;20541;-81
2021/06/25 14:42:33;;;;;;;7.80;4.30;;;;;;;24.96;60.11;99210.16;10252550;29;20221;-82
2021/06/25 14:47:52;;;;;;;5.83;4.43;;;;;;;26.44;55.24;99198.34;10250368;29;20230;-81
2021/06/25 14:53:11;;;;;;;5.47;4.47;;;;;;;27.13;55.72;99201.28;10252272;29;20206;-81
2021/06/25 14:58:31;;;;;;;4.67;4.30;;;;;;;26.42;55.18;99198.06;10252252;29;20171;-81
2021/06/25 15:03:50;;;;;;;5.27;4.77;;;;;;;24.65;60.23;99199.53;10229052;29;20187;-81
2021/06/25 15:09:09;;;;;;;8.13;5.07;;;;;;;24.43;62.03;99195.59;10211937;29;20632;-82
2021/06/25 15:14:28;;;;;;;4.57;4.23;;;;;;;24.38;62.64;99190.66;10213437;29;20180;-82
2021/06/25 15:19:47;;;;;;;4.57;4.23;;;;;;;24.87;58.71;99182.91;10212055;29;20176;-83
2021/06/25 15:25:07;;;;;;;4.73;4.30;;;;;;;25.20;62.17;99186.91;10212069;29;20219;-82
2021/06/25 15:30:27;;;;;;;9.53;4.50;;;;;;;25.84;57.44;99178.91;10212528;29;20654;-81
2021/06/25 15:35:47;;;;;;;5.70;5.30;;;;;;;24.53;59.59;99186.53;10248205;29;20191;-82
2021/06/25 15:41:07;;;;;;;6.23;5.10;;;;;;;26.37;58.63;99176.22;10252484;29;20171;-82
2021/06/25 15:46:26;;;;;;;5.77;5.27;;;;;;;26.67;50.00;99173.34;10251011;29;20198;-83
2021/06/25 15:51:45;;;;;;;7.50;4.87;;;;;;;25.90;55.33;99172.00;10251371;29;20190;-83
2021/06/25 15:57:04;;;;;;;12.00;5.03;;;;;;;24.89;59.18;99179.59;10256488;28;20258;-83
2021/06/25 16:02:24;;;;;;;6.07;5.57;;;;;;;23.70;68.14;99182.88;10246141;29;20650;-82
2021/06/25 16:07:43;;;;;;;7.03;5.67;;;;;;;23.19;68.42;99168.41;10217779;29;20203;-82
2021/06/25 16:13:09;;;;;;;6.27;5.57;;;;;;;23.04;71.07;99173.25;10218183;29;20180;-82
2021/06/25 16:18:28;;;;;;;7.20;5.17;;;;;;;22.67;67.37;99177.53;10217746;29;20184;-82
2021/06/25 16:23:48;;;;;;;16.70;6.20;;;;;;;22.47;74.47;99190.59;10219138;29;20179;-82
2021/06/25 16:29:07;;;;;;;7.43;5.70;;;;;;;22.61;71.36;99184.28;10216671;29;20218;-82
2021/06/25 16:34:26;;;;;;;6.93;6.23;;;;;;;23.16;70.40;99172.19;10245235;29;20301;-81
2021/06/25 16:39:45;;;;;;;8.93;5.80;;;;;;;23.82;62.77;99165.75;10256975;29;20178;-82
2021/06/25 16:45:05;;;;;;;9.50;6.20;;;;;;;23.83;63.96;99164.47;10235630;29;20592;-81
2021/06/25 16:50:24;;;;;;;8.27;6.27;;;;;;;24.26;59.72;99169.25;10238354;29;20258;-82
2021/06/25 16:55:49;;;;;;;8.80;6.43;;;;;;;24.46;60.64;99172.13;10232690;29;20191;-82
2021/06/25 17:01:08;;;;;;;7.53;6.30;;;;;;;25.13;57.08;99170.47;10239785;29;20187;-83
2021/06/25 17:06:27;;;;;;;6.33;5.30;;;;;;;24.63;57.16;99176.72;10226917;29;20215;-81
2021/06/25 17:11:46;;;;;;;6.30;5.70;;;;;;;24.97;57.12;99185.09;10219782;29;20227;-81
2021/06/25 17:17:05;;;;;;;6.83;6.20;;;;;;;25.74;55.37;99185.16;10235257;29;20182;-82
2021/06/25 17:22:31;;;;;;;5.80;5.30;;;;;;;25.72;54.53;99182.09;10255330;29;20525;-81
2021/06/25 17:27:50;;;;;;;7.60;6.60;;;;;;;25.31;58.27;99187.03;10233739;29;20608;-83
2021/06/25 17:33:09;;;;;;;8.30;7.00;;;;;;;25.12;57.73;99187.84;10232355;29;20234;-82
2021/06/25 17:38:28;;;;;;;7.70;6.87;;;;;;;24.60;58.83;99193.81;10231695;29;20195;-82
2021/06/25 17:43:47;;;;;;;8.00;7.10;;;;;;;24.36;60.62;99193.19;10228133;29;20182;-82
2021/06/25 17:49:06;;;;;;;9.63;6.57;;;;;;;23.43;62.77;99202.81;10239916;29;20638;-82
2021/06/25 17:54:25;;;;;;;10.27;8.10;;;;;;;23.27;63.53;99219.34;10244154;29;20541;-83
2021/06/25 17:59:44;;;;;;;9.40;8.17;;;;;;;23.49;64.19;99212.91;10230037;29;20712;-83
2021/06/25 18:05:05;;;;;;;11.20;7.70;;;;;;;23.41;65.12;99220.16;10251819;29;20206;-83
2021/06/25 18:10:24;;;;;;;9.03;7.43;;;;;;;23.43;65.77;99220.44;10238001;29;20542;-83
2021/06/25 18:15:43;;;;;;;10.37;7.13;;;;;;;22.80;66.91;99227.78;10223666;29;20182;-83
2021/06/25 18:21:03;;;;;;;9.70;8.30;;;;;;;22.36;69.78;99242.84;10251548;28;20622;-83
2021/06/25 18:26:22;;;;;;;19.90;7.67;;;;;;;22.03;72.14;99236.41;10255186;29;20214;-82
2021/06/25 18:31:41;;;;;;;11.40;7.87;;;;;;;21.94;73.72;99240.00;10250392;29;20313;-82
2021/06/25 18:36:59;;;;;;;12.23;8.67;;;;;;;21.81;75.98;99239.41;10252068;29;20626;-83
2021/06/25 18:42:18;;;;;;;17.67;8.27;;;;;;;21.75;77.05;99246.91;10252808;29;20183;-83
2021/06/25 18:47:38;;;;;;;13.20;7.87;;;;;;;21.76;77.34;99244.91;10251434;29;20697;-83
2021/06/25 18:52:57;;;;;;;9.50;7.10;;;;;;;21.48;79.56;99250.97;10252630;29;20174;-83
2021/06/25 18:58:17;;;;;;;12.47;8.27;;;;;;;21.41;81.18;99249.25;10254604;29;20183;-83
2021/06/25 19:03:36;;;;;;;13.60;8.10;;;;;;;21.22;80.35;99244.91;10240167;29;20214;-83
2021/06/25 19:08:55;;;;;;;11.53;7.80;;;;;;;20.87;86.29;99245.66;10212257;29;20262;-83
2021/06/25 19:14:14;;;;;;;11.17;8.03;;;;;;;20.77;88.09;99262.88;10213130;29;20176;-83
2021/06/25 19:19:34;;;;;;;8.40;6.50;;;;;;;20.43;93.79;99261.06;10212825;29;20211;-82
2021/06/25 19:24:53;;;;;;;13.07;9.10;;;;;;;20.10;100.00;99267.59;10212463;29;20709;-83
2021/06/25 19:30:13;;;;;;;12.97;8.30;;;;;;;19.94;100.00;99280.97;10213246;29;20223;-82
2021/06/25 19:35:32;;;;;;;16.47;9.60;;;;;;;19.76;100.00;99280.88;10245799;29;20194;-82
2021/06/25 19:40:53;;;;;;;12.50;8.17;;;;;;;19.70;100.00;99291.06;10259421;29;20209;-83
2021/06/25 19:46:12;;;;;;;14.50;9.87;;;;;;;19.44;100.00;99295.97;10257820;29;20214;-83
2021/06/25 19:51:32;;;;;;;13.40;8.00;;;;;;;19.19;100.00;99295.31;10258654;29;20179;-83
2021/06/25 19:56:51;;;;;;;12.30;8.30;;;;;;;19.01;100.00;99300.69;10258784;29;20174;-82
2021/06/25 20:02:10;;;;;;;14.70;8.30;;;;;;;18.85;100.00;99311.97;10258083;29;20194;-82
2021/06/25 20:07:29;;;;;;;15.70;9.60;;;;;;;18.72;100.00;99313.22;10219172;29;20671;-83
2021/06/25 20:12:48;;;;;;;16.93;10.90;;;;;;;18.72;100.00;99318.78;10218556;29;20183;-82
2021/06/25 20:18:07;;;;;;;15.70;9.50;;;;;;;18.62;100.00;99323.50;10217128;29;20183;-83
2021/06/25 20:23:26;;;;;;;21.43;10.90;;;;;;;18.55;100.00;99318.16;10239380;29;20183;-82
2021/06/25 20:28:46;;;;;;;20.30;12.23;;;;;;;18.52;100.00;99324.59;10256767;29;20238;-82
2021/06/25 20:34:05;;;;;;;15.93;9.67;;;;;;;18.48;100.00;99317.59;10247215;29;20179;-82
2021/06/25 20:39:25;;;;;;;23.53;12.30;;;;;;;18.34;100.00;99322.81;10219232;29;20231;-82
2021/06/25 20:44:48;;;;;;;13.00;9.50;;;;;;;18.27;100.00;99318.25;10217222;29;20175;-83
2021/06/25 20:50:09;;;;;;;14.57;9.53;;;;;;;18.03;100.00;99332.88;10215880;29;20187;-82
2021/06/25 20:55:27;;;;;;;18.60;10.43;;;;;;;18.05;100.00;99339.56;10216978;29;20187;-82
2021/06/25 21:00:47;;;;;;;15.30;8.83;;;;;;;17.87;100.00;99338.53;10217664;29;20203;-83
2021/06/25 21:06:06;;;;;;;14.27;10.30;;;;;;;17.74;100.00;99330.16;10219970;29;20293;-82
2021/06/25 21:11:25;;;;;;;15.13;9.90;;;;;;;17.46;100.00;99343.28;10240570;29;20274;-82
2021/06/25 21:16:44;;;;;;;15.93;9.80;;;;;;;17.44;100.00;99340.97;10238601;29;20265;-82
2021/06/25 21:22:03;;;;;;;16.07;10.30;;;;;;;17.47;100.00;99336.53;10253931;29;20586;-82
2021/06/25 21:27:22;;;;;;;17.17;10.37;;;;;;;17.40;100.00;99331.91;10254631;29;20202;-82
2021/06/25 21:32:41;;;;;;;15.37;9.10;;;;;;;17.42;100.00;99339.81;10253121;29;20214;-82
2021/06/25 21:38:00;;;;;;;18.90;11.17;;;;;;;17.70;100.00;99332.25;10248097;29;20183;-82
2021/06/25 21:43:20;;;;;;;22.83;11.90;;;;;;;17.84;100.00;99339.44;10240140;29;20187;-82
2021/06/25 21:48:39;;;;;;;18.60;10.40;;;;;;;17.58;100.00;99338.56;10212984;29;20220;-82
2021/06/25 21:53:58;;;;;;;21.30;11.83;;;;;;;17.58;100.00;99346.91;10236235;28;20187;-83
2021/06/25 21:59:17;;;;;;;19.10;11.20;;;;;;;17.60;100.00;99341.69;10254900;29;20626;-83
2021/06/25 22:04:36;;;;;;;21.23;11.57;;;;;;;17.71;100.00;99352.50;10252562;29;20194;-83
2021/06/25 22:09:58;;;;;;;22.80;12.10;;;;;;;17.66;100.00;99355.84;10253677;29;20187;-82
2021/06/25 22:15:17;;;;;;;20.30;11.53;;;;;;;17.58;100.00;99362.03;10254342;29;20178;-82
2021/06/25 22:20:37;;;;;;;16.80;10.47;;;;;;;17.59;100.00;99367.94;10252989;29;20186;-82
2021/06/25 22:25:56;;;;;;;20.77;11.50;;;;;;;17.61;100.00;99364.72;10252146;29;20305;-83
2021/06/25 22:31:16;;;;;;;28.17;12.20;;;;;;;17.31;100.00;99367.16;10252394;29;20623;-82
2021/06/25 22:36:35;;;;;;;20.27;11.23;;;;;;;17.24;100.00;99364.53;10253854;29;20186;-82
2021/06/25 22:41:54;;;;;;;19.30;11.20;;;;;;;17.20;100.00;99367.41;10252842;29;20174;-82
2021/06/25 22:47:13;;;;;;;19.53;10.07;;;;;;;17.21;100.00;99368.94;10252043;29;20636;-82
2021/06/25 22:52:33;;;;;;;17.20;10.17;;;;;;;17.36;100.00;99367.41;10253640;29;20208;-82
2021/06/25 22:57:52;;;;;;;15.70;9.53;;;;;;;17.39;100.00;99362.97;10222128;29;20207;-81
2021/06/25 23:03:11;;;;;;;15.17;9.70;;;;;;;17.20;100.00;99366.59;10211603;29;20187;-83
2021/06/25 23:08:30;;;;;;;19.80;10.60;;;;;;;17.11;100.00;99372.78;10219233;29;20215;-82
2021/06/25 23:13:49;;;;;;;17.93;11.00;;;;;;;17.05;100.00;99376.53;10223025;29;20175;-82
2021/06/25 23:19:08;;;;;;;26.43;11.20;;;;;;;16.99;100.00;99384.59;10219498;29;20545;-82
2021/06/25 23:24:27;;;;;;;16.63;10.43;;;;;;;17.00;100.00;99377.81;10224899;29;20175;-82
2021/06/25 23:29:46;;;;;;;13.63;8.50;;;;;;;16.91;100.00;99377.66;10237020;29;20310;-82
2021/06/25 23:35:06;;;;;;;17.77;10.60;;;;;;;16.88;100.00;99374.97;10218640;29;20229;-83
2021/06/25 23:40:25;;;;;;;18.70;10.00;;;;;;;16.89;100.00;99377.28;10220737;29;20191;-83
2021/06/25 23:45:44;;;;;;;17.90;10.27;;;;;;;16.90;100.00;99367.75;10220230;29;20302;-82
2021/06/25 23:51:03;;;;;;;16.57;10.10;;;;;;;16.81;100.00;99373.13;10219800;29;20192;-82
2021/06/25 23:56:22;;;;;;;14.77;11.27;;;;;;;16.55;100.00;99375.38;10238901;29;20194;-82
